McGrath, AK

9:25 PM AKDT on August 30, 2014 (GMT -0800)
McGrath | Change Station
CLOSE
Current Station
Airport
Location: McGrath,
Elevation: 338 ft
Nearby Weather Stations

Elev 338 ft 62.95 °N, 155.61 °W | Updated 32 minutes ago

Clear
Clear
50 °F
Feels Like 50 °F
N
6
Wind Variable Wind from NNW

Today
High -- | Low -- °F
--% Chance of Precip.
Yesterday
High -- | Low -- °F
Precip. -- in
7:03 AM 9:40 PM
Waxing Crescent, 27% visible
Pressure 29.71 in
Visibility 10.0 miles
Clouds Clear
Dew Point 31 °F
Humidity 48%
Rainfall 0.00 in
Snow Depth Not available.
UV 0 out of 12
Pollen Not available.
Air Quality Not available.
Flu Activity Not available.
METAR PAMC 310453Z 34005KT 10SM CLR 10/M01 A2969 RMK AO2 SLP059 T01001006

More Conditions Fewer Conditions

Pressure 29.71 in
Visibility 10.0 miles
Clouds Clear
Dew Point 31 °F
Humidity 48%
Rainfall 0.00 in
Snow Depth Not available.
UV 0 out of 12
Pollen Not available.
Air Quality Not available.
Flu Activity Not available.
METAR PAMC 310453Z 34005KT 10SM CLR 10/M01 A2969 RMK AO2 SLP059 T01001006

More Conditions Fewer Conditions

10-Day Weather Forecast

Almanac

Astronomy

Aug. 30, 2014 Rise Set
Actual Time 7:03 AM AKDT 9:40 PM AKDT
Civil Twilight 6:12 AM AKDT 10:30 PM AKDT
Nautical Twilight 5:01 AM AKDT 11:40 PM AKDT
Astronomical Twilight 2:43 AM AKDT 1:41 AM AKDT
Moon 1:48 PM AKDT (8/30) 10:30 PM AKDT (8/30)
Length of Visible Light 16h 18m
Length of Day
14h 36m
Tomorrow will be 6m 8s shorter.
Waxing Crescent, 27% of the Moon is Illuminated
Aug 31
Waxing Crescent
Sep 2
First Quarter
Sep 8
Full
Sep 15
Last Quarter
Sep 24
New

Yesterday's Extremes

State Highs State Lows

Community

WunderPhotos

Upload Photos

1,748,790 photos uploaded!

Nearby

Snow Depth

Station Depth Elevation
Susitna Valley High 2 in 375 ft
Point Mackenzie 1 in 200 ft
Indian Pass 1 in 2300 ft
Mcneil Canyon 1 in 1320 ft
Summit Creek 0 in 1400 ft

Earthquake Activity

City Distance Mag. Time & Date
No recent earthquake activity has been reported nearby.
Minimum magnitude displayed is 2.5.

Coastal Water Temperatures

Place Temperature
No Stations Reporting

Nearby Weather Stations